createdAt,value
2018-06-28T00:03:09.572Z,7.63
2018-06-28T00:09:04.572Z,8.06
2018-06-28T00:14:59.508Z,4.23
2018-06-28T00:20:54.526Z,10.08
2018-06-28T00:26:49.584Z,6.09
2018-06-28T00:32:44.551Z,6.61
2018-06-28T00:38:39.514Z,8.24
2018-06-28T00:44:34.517Z,7.67
2018-06-28T00:50:29.595Z,7.38
2018-06-28T00:56:24.561Z,9.64
2018-06-28T01:02:19.603Z,6.51
2018-06-28T01:08:14.550Z,6.17
2018-06-28T01:14:09.580Z,5.72
2018-06-28T01:20:05.120Z,6.99
2018-06-28T01:25:59.583Z,6.78
2018-06-28T01:31:54.607Z,4.11
2018-06-28T01:37:49.694Z,7.43
2018-06-28T01:43:44.568Z,6.38
2018-06-28T01:49:39.598Z,7.99
2018-06-28T01:55:34.631Z,7.04
2018-06-28T02:01:29.623Z,9.58
2018-06-28T02:07:24.583Z,7.98
2018-06-28T02:13:19.602Z,7.38
2018-06-28T02:19:14.634Z,6.99
2018-06-28T02:25:09.723Z,6.18
2018-06-28T02:31:04.590Z,7.05
2018-06-28T02:36:59.653Z,9.6
2018-06-28T02:42:54.603Z,5.5
2018-06-28T02:48:49.640Z,5.95
2018-06-28T02:54:44.675Z,7.92
2018-06-28T03:00:39.626Z,8.77
2018-06-28T03:06:34.641Z,6.9
2018-06-28T03:12:29.657Z,7.21
2018-06-28T03:18:24.647Z,4.1
2018-06-28T03:24:19.633Z,6.08
2018-06-28T03:30:14.719Z,6.28
2018-06-28T03:36:09.619Z,6
2018-06-28T03:42:04.665Z,7.88
2018-06-28T03:47:59.688Z,8.73
2018-06-28T03:53:54.659Z,18.87
2018-06-28T03:59:49.639Z,15.57
2018-06-28T04:05:44.690Z,13.64
2018-06-28T04:11:39.667Z,13.41
2018-06-28T04:17:34.668Z,15.5
2018-06-28T04:23:29.664Z,13.1
2018-06-28T04:29:24.677Z,11.23
2018-06-28T04:35:19.731Z,14.95
2018-06-28T04:41:14.689Z,13.42
2018-06-28T04:47:09.725Z,13.01
2018-06-28T04:53:04.710Z,15.78
2018-06-28T04:58:59.704Z,13.7
2018-06-28T05:04:54.694Z,8.42
2018-06-28T05:10:49.707Z,19.48
2018-06-28T05:16:44.713Z,13.39
2018-06-28T05:22:39.771Z,13.88
2018-06-28T05:28:34.748Z,29.89
2018-06-28T05:34:29.737Z,17.85
2018-06-28T05:40:24.806Z,33.71
2018-06-28T05:46:19.689Z,15.54
2018-06-28T05:52:14.695Z,13.86
2018-06-28T05:58:09.740Z,18.75
2018-06-28T06:04:04.710Z,13.36
2018-06-28T06:09:59.750Z,19.45
2018-06-28T06:15:54.804Z,18.95
2018-06-28T06:21:49.798Z,17.18
2018-06-28T06:27:44.784Z,13.56
2018-06-28T06:33:39.804Z,12
2018-06-28T06:39:34.817Z,13.38
2018-06-28T06:45:29.802Z,13.84
2018-06-28T06:51:24.791Z,33.01
2018-06-28T06:57:19.771Z,38.95
2018-06-28T07:03:14.790Z,31.05
2018-06-28T07:09:09.833Z,35.96
2018-06-28T07:15:04.816Z,14.64
2018-06-28T07:20:59.812Z,13.51
2018-06-28T07:26:54.782Z,13.83
2018-06-28T07:32:49.861Z,9.47
2018-06-28T07:38:44.956Z,11.36
2018-06-28T07:44:39.806Z,12.72
2018-06-28T07:50:34.795Z,8.1
2018-06-28T07:56:29.793Z,8.17
2018-06-28T08:02:24.781Z,10.69
2018-06-28T08:08:19.776Z,11.48
2018-06-28T08:14:14.813Z,12.79
2018-06-28T08:20:10.423Z,12.34
2018-06-28T08:26:04.839Z,15.3
2018-06-28T08:31:59.791Z,13.03
2018-06-28T08:37:54.821Z,17.7
2018-06-28T08:43:49.838Z,16.49
2018-06-28T08:49:44.834Z,20.59
2018-06-28T08:55:39.814Z,19.37
2018-06-28T09:01:34.825Z,13.94
2018-06-28T09:07:29.829Z,16.87
2018-06-28T09:13:24.825Z,10.88
2018-06-28T09:19:19.825Z,6.76
2018-06-28T09:25:14.865Z,5.38
2018-06-28T09:31:09.860Z,8.36
2018-06-28T09:37:04.877Z,5.42
2018-06-28T09:42:59.878Z,5.58
2018-06-28T09:48:54.851Z,4.09
2018-06-28T09:54:50.127Z,5.44
2018-06-28T10:00:44.918Z,2.21
2018-06-28T10:06:39.962Z,2.53
2018-06-28T10:12:34.872Z,2.41
2018-06-28T10:18:29.907Z,6.05
2018-06-28T10:24:24.838Z,7.06
2018-06-28T10:30:19.926Z,5.48
2018-06-28T10:36:14.946Z,6.57
2018-06-28T10:42:09.913Z,4.99
2018-06-28T10:48:04.908Z,5.04
2018-06-28T10:53:59.989Z,1.41
2018-06-28T10:59:54.906Z,3.48
2018-06-28T11:05:49.932Z,3.07
2018-06-28T11:11:44.893Z,1.55
2018-06-28T11:17:39.890Z,2.49
2018-06-28T11:23:35.024Z,1.85
2018-06-28T11:29:29.932Z,1.75
2018-06-28T11:35:24.911Z,1.31
2018-06-28T11:41:19.970Z,3.27
2018-06-28T11:47:14.890Z,1.09
2018-06-28T11:53:09.982Z,0.93
2018-06-28T11:59:04.946Z,1.38
2018-06-28T12:04:59.932Z,1.11
2018-06-28T12:10:54.995Z,0.73
2018-06-28T12:16:50.084Z,0.73
2018-06-28T12:22:44.993Z,0.75
2018-06-28T12:28:39.952Z,1.2
2018-06-28T12:34:34.963Z,1.5
2018-06-28T12:40:29.972Z,1.07
2018-06-28T12:46:24.995Z,1.9
2018-06-28T12:52:19.975Z,4.28
2018-06-28T12:58:14.986Z,2.47
2018-06-28T13:04:09.975Z,0.94
2018-06-28T13:10:04.965Z,3.03
2018-06-28T13:15:59.985Z,45.34
2018-06-28T13:21:54.990Z,5.16
2018-06-28T13:27:50.049Z,6.92
2018-06-28T13:33:45.075Z,7.91
2018-06-28T13:39:39.978Z,2.53
2018-06-28T13:45:35.008Z,3.71
2018-06-28T13:51:30.052Z,4.42
2018-06-28T13:57:24.990Z,1.93
2018-06-28T14:03:20.118Z,3
2018-06-28T14:09:15.050Z,2.32
2018-06-28T14:15:10.089Z,2.78
2018-06-28T14:21:04.998Z,3.17
2018-06-28T14:27:00.058Z,4.35
2018-06-28T14:32:55.030Z,4.6
2018-06-28T14:38:50.005Z,4.02
2018-06-28T14:44:45.001Z,1.96
2018-06-28T14:50:40.074Z,1.38
2018-06-28T14:56:35.041Z,2.33
2018-06-28T15:02:30.092Z,1.38
2018-06-28T15:08:25.028Z,2.53
2018-06-28T15:14:20.067Z,3.61
2018-06-28T15:20:15.226Z,4
2018-06-28T15:26:10.056Z,2.57
2018-06-28T15:32:05.090Z,2.86
2018-06-28T15:38:00.065Z,3.37
2018-06-28T15:43:55.102Z,1.39
2018-06-28T15:49:50.133Z,2.1
2018-06-28T15:55:45.194Z,2.34
2018-06-28T16:01:40.161Z,5.47
2018-06-28T16:07:35.114Z,1.31
2018-06-28T16:13:30.127Z,1.58
2018-06-28T16:19:25.141Z,3.8
2018-06-28T16:25:20.092Z,5.39
2018-06-28T16:31:15.071Z,4.47
2018-06-28T16:37:10.141Z,1.87
2018-06-28T16:43:05.108Z,4.12
2018-06-28T16:49:00.115Z,2.98
2018-06-28T16:54:55.122Z,4.51
2018-06-28T17:00:50.109Z,1.91
2018-06-28T17:06:45.151Z,0.72
2018-06-28T17:12:40.132Z,0.93
2018-06-28T17:18:35.132Z,1.01
2018-06-28T17:24:30.094Z,1.63
2018-06-28T17:30:25.173Z,0.98
2018-06-28T17:36:20.210Z,1.11
2018-06-28T17:42:15.123Z,1.29
2018-06-28T17:48:10.163Z,0.89
2018-06-28T17:54:05.182Z,1.98
2018-06-28T18:00:00.213Z,1.14
2018-06-28T18:05:55.178Z,2.42
2018-06-28T18:11:50.220Z,1.72
2018-06-28T18:17:45.175Z,1.18
2018-06-28T18:23:40.302Z,1.91
2018-06-28T18:29:35.196Z,1.23
2018-06-28T18:35:30.186Z,1.79
2018-06-28T18:41:25.195Z,1.51
2018-06-28T18:47:20.183Z,2.46
2018-06-28T18:53:15.171Z,3.07
2018-06-28T18:59:10.181Z,1.5
2018-06-28T19:05:05.481Z,4.02
2018-06-28T19:11:00.221Z,2.97
2018-06-28T19:16:55.216Z,1.74
2018-06-28T19:22:50.193Z,3.17
2018-06-28T19:28:45.260Z,2.1
2018-06-28T19:34:40.227Z,3.11
2018-06-28T19:40:36.042Z,3.77
2018-06-28T19:46:30.227Z,1.87
2018-06-28T19:52:25.429Z,1.8
2018-06-28T19:58:20.194Z,2.27
2018-06-28T20:04:15.286Z,5.55
2018-06-28T20:10:10.374Z,3.7
2018-06-28T20:16:05.273Z,1.21
2018-06-28T20:22:00.218Z,2.1
2018-06-28T20:27:55.215Z,5.19
2018-06-28T20:33:50.213Z,2.58
2018-06-28T20:39:45.287Z,3.55
2018-06-28T20:45:40.231Z,3.49
2018-06-28T20:51:35.338Z,2.29
2018-06-28T20:57:30.261Z,3.72
2018-06-28T21:03:25.289Z,3.71
2018-06-28T21:09:20.253Z,5.69
2018-06-28T21:15:15.612Z,9.75
2018-06-28T21:21:10.337Z,12.89
2018-06-28T21:27:05.484Z,13.78
2018-06-28T21:33:00.293Z,14.92
2018-06-28T21:38:55.285Z,13.21
2018-06-28T21:44:50.300Z,15.92
2018-06-28T21:50:45.299Z,13.78
2018-06-28T21:56:40.392Z,12.23
2018-06-28T22:02:35.309Z,12.74
2018-06-28T22:08:30.314Z,11.89
2018-06-28T22:14:25.321Z,13.72
2018-06-28T22:20:20.866Z,9.53
2018-06-28T22:26:15.308Z,13.72
2018-06-28T22:32:10.335Z,11.57
2018-06-28T22:38:05.309Z,9.4
2018-06-28T22:44:00.391Z,14.21
2018-06-28T22:49:55.316Z,10.18
2018-06-28T22:55:50.317Z,8.19
2018-06-28T23:01:45.296Z,8.52
2018-06-28T23:07:40.354Z,5.95
2018-06-28T23:13:35.354Z,5.74
2018-06-28T23:19:30.317Z,6.17
2018-06-28T23:25:25.354Z,9.32
2018-06-28T23:31:20.366Z,5.46
2018-06-28T23:37:15.396Z,7.17
2018-06-28T23:43:10.323Z,5.89
2018-06-28T23:49:05.358Z,3.8
2018-06-28T23:55:00.360Z,7.12
